sensor_id;sensor_type;location;lat;lon;timestamp;pressure;altitude;pressure_sealevel;temperature;humidity
49843;BME280;55559;48.898;9.184;2022-08-18T00:00:13;98123.19;;;20.09;100.00
49843;BME280;55559;48.898;9.184;2022-08-18T00:02:42;98116.09;;;20.01;100.00
49843;BME280;55559;48.898;9.184;2022-08-18T00:05:11;98112.97;;;19.91;100.00
49843;BME280;55559;48.898;9.184;2022-08-18T00:07:38;98113.59;;;19.86;100.00
49843;BME280;55559;48.898;9.184;2022-08-18T00:10:07;98110.06;;;19.79;100.00
49843;BME280;55559;48.898;9.184;2022-08-18T00:12:36;98106.50;;;19.72;100.00
49843;BME280;55559;48.898;9.184;2022-08-18T00:15:06;98103.56;;;19.60;100.00
49843;BME280;55559;48.898;9.184;2022-08-18T00:17:34;98102.91;;;19.51;100.00
49843;BME280;55559;48.898;9.184;2022-08-18T00:20:03;98108.50;;;19.50;100.00
49843;BME280;55559;48.898;9.184;2022-08-18T00:22:33;98110.34;;;19.43;100.00
49843;BME280;55559;48.898;9.184;2022-08-18T00:25:01;98103.66;;;19.32;100.00
49843;BME280;55559;48.898;9.184;2022-08-18T00:27:30;98099.13;;;19.39;100.00
49843;BME280;55559;48.898;9.184;2022-08-18T00:29:59;98100.16;;;19.31;100.00
49843;BME280;55559;48.898;9.184;2022-08-18T00:32:30;98095.78;;;19.30;100.00
49843;BME280;55559;48.898;9.184;2022-08-18T00:35:04;98103.03;;;19.30;100.00
49843;BME280;55559;48.898;9.184;2022-08-18T00:37:33;98102.63;;;19.26;100.00
49843;BME280;55559;48.898;9.184;2022-08-18T00:40:01;98094.72;;;19.25;100.00
49843;BME280;55559;48.898;9.184;2022-08-18T00:42:29;98090.56;;;19.22;100.00
49843;BME280;55559;48.898;9.184;2022-08-18T00:45:00;98091.63;;;19.28;100.00
49843;BME280;55559;48.898;9.184;2022-08-18T00:47:28;98090.34;;;19.17;100.00
49843;BME280;55559;48.898;9.184;2022-08-18T00:49:56;98096.38;;;19.26;100.00
49843;BME280;55559;48.898;9.184;2022-08-18T00:52:23;98089.94;;;19.20;100.00
49843;BME280;55559;48.898;9.184;2022-08-18T00:54:53;98080.41;;;19.18;100.00
49843;BME280;55559;48.898;9.184;2022-08-18T00:57:22;98076.84;;;19.17;100.00
49843;BME280;55559;48.898;9.184;2022-08-18T00:59:54;98079.72;;;19.09;100.00
49843;BME280;55559;48.898;9.184;2022-08-18T01:02:35;98080.16;;;19.06;100.00
49843;BME280;55559;48.898;9.184;2022-08-18T01:05:08;98080.97;;;19.06;100.00
49843;BME280;55559;48.898;9.184;2022-08-18T01:07:40;98081.16;;;19.05;100.00
49843;BME280;55559;48.898;9.184;2022-08-18T01:10:11;98081.75;;;19.00;100.00
49843;BME280;55559;48.898;9.184;2022-08-18T01:12:41;98078.84;;;18.95;100.00
49843;BME280;55559;48.898;9.184;2022-08-18T01:15:09;98074.91;;;18.98;100.00
49843;BME280;55559;48.898;9.184;2022-08-18T01:17:38;98070.94;;;18.93;100.00
49843;BME280;55559;48.898;9.184;2022-08-18T01:20:28;98069.31;;;18.92;100.00
49843;BME280;55559;48.898;9.184;2022-08-18T01:23:20;98074.66;;;18.86;100.00
49843;BME280;55559;48.898;9.184;2022-08-18T01:25:48;98061.75;;;18.81;100.00
49843;BME280;55559;48.898;9.184;2022-08-18T01:28:30;98064.44;;;18.81;100.00
49843;BME280;55559;48.898;9.184;2022-08-18T01:31:00;98064.84;;;18.78;100.00
49843;BME280;55559;48.898;9.184;2022-08-18T01:33:30;98062.22;;;18.85;100.00
49843;BME280;55559;48.898;9.184;2022-08-18T01:35:59;98058.69;;;18.84;100.00
49843;BME280;55559;48.898;9.184;2022-08-18T01:38:30;98042.34;;;18.86;100.00
49843;BME280;55559;48.898;9.184;2022-08-18T01:40:57;98038.94;;;18.77;100.00
49843;BME280;55559;48.898;9.184;2022-08-18T01:43:25;98029.13;;;18.63;100.00
49843;BME280;55559;48.898;9.184;2022-08-18T01:45:53;98028.06;;;18.57;100.00
49843;BME280;55559;48.898;9.184;2022-08-18T01:48:26;98015.03;;;18.61;100.00
49843;BME280;55559;48.898;9.184;2022-08-18T01:50:58;98017.06;;;18.52;100.00
49843;BME280;55559;48.898;9.184;2022-08-18T01:53:25;98013.91;;;18.48;100.00
49843;BME280;55559;48.898;9.184;2022-08-18T01:55:55;98009.38;;;18.49;100.00
49843;BME280;55559;48.898;9.184;2022-08-18T01:58:22;98011.22;;;18.42;100.00
49843;BME280;55559;48.898;9.184;2022-08-18T02:00:53;98009.09;;;18.37;100.00
49843;BME280;55559;48.898;9.184;2022-08-18T02:03:24;97997.91;;;18.33;100.00
49843;BME280;55559;48.898;9.184;2022-08-18T02:05:57;97990.22;;;18.30;100.00
49843;BME280;55559;48.898;9.184;2022-08-18T02:08:26;98000.13;;;18.30;100.00
49843;BME280;55559;48.898;9.184;2022-08-18T02:10:55;98007.81;;;18.33;100.00
49843;BME280;55559;48.898;9.184;2022-08-18T02:13:23;98004.78;;;18.43;100.00
49843;BME280;55559;48.898;9.184;2022-08-18T02:15:51;98005.16;;;18.39;100.00
49843;BME280;55559;48.898;9.184;2022-08-18T02:18:24;98004.56;;;18.44;100.00
49843;BME280;55559;48.898;9.184;2022-08-18T02:20:53;98015.53;;;18.43;100.00
49843;BME280;55559;48.898;9.184;2022-08-18T02:23:21;98008.28;;;18.43;100.00
49843;BME280;55559;48.898;9.184;2022-08-18T02:25:49;98012.06;;;18.49;100.00
49843;BME280;55559;48.898;9.184;2022-08-18T02:28:17;98010.53;;;18.39;100.00
49843;BME280;55559;48.898;9.184;2022-08-18T02:30:45;97992.94;;;18.37;100.00
49843;BME280;55559;48.898;9.184;2022-08-18T02:33:12;97996.25;;;18.39;100.00
49843;BME280;55559;48.898;9.184;2022-08-18T02:35:39;97987.97;;;18.34;100.00
49843;BME280;55559;48.898;9.184;2022-08-18T02:38:08;97997.28;;;18.38;100.00
49843;BME280;55559;48.898;9.184;2022-08-18T02:40:36;97987.31;;;18.32;100.00
49843;BME280;55559;48.898;9.184;2022-08-18T02:43:05;97991.91;;;18.38;100.00
49843;BME280;55559;48.898;9.184;2022-08-18T02:45:35;97999.53;;;18.34;100.00
49843;BME280;55559;48.898;9.184;2022-08-18T02:48:03;97989.63;;;18.35;100.00
49843;BME280;55559;48.898;9.184;2022-08-18T02:50:31;97986.94;;;18.35;100.00
49843;BME280;55559;48.898;9.184;2022-08-18T02:53:00;97988.16;;;18.32;100.00
49843;BME280;55559;48.898;9.184;2022-08-18T02:55:28;97987.31;;;18.32;100.00
49843;BME280;55559;48.898;9.184;2022-08-18T02:57:55;97992.09;;;18.36;100.00
49843;BME280;55559;48.898;9.184;2022-08-18T03:00:23;98003.75;;;18.44;100.00
49843;BME280;55559;48.898;9.184;2022-08-18T03:02:52;98008.72;;;18.40;100.00
49843;BME280;55559;48.898;9.184;2022-08-18T03:05:19;98004.19;;;18.47;100.00
49843;BME280;55559;48.898;9.184;2022-08-18T03:07:47;98002.31;;;18.48;100.00
49843;BME280;55559;48.898;9.184;2022-08-18T03:10:15;97995.53;;;18.52;100.00
49843;BME280;55559;48.898;9.184;2022-08-18T03:12:43;98002.56;;;18.53;100.00
49843;BME280;55559;48.898;9.184;2022-08-18T03:15:10;98004.66;;;18.57;100.00
49843;BME280;55559;48.898;9.184;2022-08-18T03:17:38;98001.75;;;18.59;100.00
49843;BME280;55559;48.898;9.184;2022-08-18T03:20:08;98004.47;;;18.59;100.00
49843;BME280;55559;48.898;9.184;2022-08-18T03:22:36;97993.22;;;18.49;100.00
49843;BME280;55559;48.898;9.184;2022-08-18T03:25:04;98000.44;;;18.48;100.00
49843;BME280;55559;48.898;9.184;2022-08-18T03:27:31;97996.34;;;18.52;100.00
49843;BME280;55559;48.898;9.184;2022-08-18T03:29:59;97989.72;;;18.55;100.00
49843;BME280;55559;48.898;9.184;2022-08-18T03:32:46;97978.91;;;18.42;100.00
49843;BME280;55559;48.898;9.184;2022-08-18T03:35:15;97982.22;;;18.44;100.00
49843;BME280;55559;48.898;9.184;2022-08-18T03:37:43;97981.78;;;18.40;100.00
49843;BME280;55559;48.898;9.184;2022-08-18T03:40:10;97982.19;;;18.37;100.00
49843;BME280;55559;48.898;9.184;2022-08-18T03:42:38;97970.78;;;18.35;100.00
49843;BME280;55559;48.898;9.184;2022-08-18T03:45:06;97970.56;;;18.36;100.00
49843;BME280;55559;48.898;9.184;2022-08-18T03:47:34;97979.09;;;18.40;100.00
49843;BME280;55559;48.898;9.184;2022-08-18T03:50:01;97976.38;;;18.33;100.00
49843;BME280;55559;48.898;9.184;2022-08-18T03:52:30;97976.16;;;18.35;100.00
49843;BME280;55559;48.898;9.184;2022-08-18T03:54:58;97969.50;;;18.31;100.00
49843;BME280;55559;48.898;9.184;2022-08-18T03:57:25;97967.59;;;18.25;100.00
49843;BME280;55559;48.898;9.184;2022-08-18T03:59:52;97970.72;;;18.21;100.00
49843;BME280;55559;48.898;9.184;2022-08-18T04:02:21;97976.09;;;18.21;100.00
49843;BME280;55559;48.898;9.184;2022-08-18T04:04:48;97980.00;;;18.19;100.00
49843;BME280;55559;48.898;9.184;2022-08-18T04:07:16;97966.72;;;18.17;100.00
49843;BME280;55559;48.898;9.184;2022-08-18T04:09:45;97961.75;;;18.14;100.00
49843;BME280;55559;48.898;9.184;2022-08-18T04:12:14;97953.84;;;18.13;100.00
49843;BME280;55559;48.898;9.184;2022-08-18T04:14:43;97951.59;;;18.10;100.00
49843;BME280;55559;48.898;9.184;2022-08-18T04:17:12;97958.81;;;18.09;100.00
49843;BME280;55559;48.898;9.184;2022-08-18T04:19:40;97964.00;;;18.11;100.00
49843;BME280;55559;48.898;9.184;2022-08-18T04:22:07;97964.84;;;18.11;100.00
49843;BME280;55559;48.898;9.184;2022-08-18T04:24:36;97968.56;;;18.10;100.00
49843;BME280;55559;48.898;9.184;2022-08-18T04:27:05;97975.63;;;18.11;100.00
49843;BME280;55559;48.898;9.184;2022-08-18T04:29:32;97973.13;;;18.10;100.00
49843;BME280;55559;48.898;9.184;2022-08-18T04:32:01;97979.16;;;18.18;100.00
49843;BME280;55559;48.898;9.184;2022-08-18T04:34:30;97978.72;;;18.15;100.00
49843;BME280;55559;48.898;9.184;2022-08-18T04:36:58;97987.00;;;18.13;100.00
49843;BME280;55559;48.898;9.184;2022-08-18T04:39:27;97988.06;;;18.19;100.00
49843;BME280;55559;48.898;9.184;2022-08-18T04:41:54;97982.91;;;18.24;100.00
49843;BME280;55559;48.898;9.184;2022-08-18T04:44:25;97990.59;;;18.27;100.00
49843;BME280;55559;48.898;9.184;2022-08-18T04:46:53;97991.03;;;18.31;100.00
49843;BME280;55559;48.898;9.184;2022-08-18T04:49:22;97998.53;;;18.35;100.00
49843;BME280;55559;48.898;9.184;2022-08-18T04:51:51;97995.47;;;18.45;100.00
49843;BME280;55559;48.898;9.184;2022-08-18T04:54:33;97990.75;;;18.54;100.00
49843;BME280;55559;48.898;9.184;2022-08-18T04:57:11;97998.84;;;18.54;100.00
49843;BME280;55559;48.898;9.184;2022-08-18T04:59:43;97994.47;;;18.53;100.00
49843;BME280;55559;48.898;9.184;2022-08-18T05:02:11;97995.94;;;18.55;100.00
49843;BME280;55559;48.898;9.184;2022-08-18T05:04:40;98003.63;;;18.58;100.00
49843;BME280;55559;48.898;9.184;2022-08-18T05:07:13;98009.44;;;18.62;100.00
49843;BME280;55559;48.898;9.184;2022-08-18T05:09:41;98015.41;;;18.57;100.00
49843;BME280;55559;48.898;9.184;2022-08-18T05:12:11;98013.59;;;18.65;100.00
49843;BME280;55559;48.898;9.184;2022-08-18T05:14:41;98020.66;;;18.66;100.00
49843;BME280;55559;48.898;9.184;2022-08-18T05:17:11;98026.47;;;18.69;100.00
49843;BME280;55559;48.898;9.184;2022-08-18T05:19:39;98027.69;;;18.67;100.00
49843;BME280;55559;48.898;9.184;2022-08-18T05:22:09;98021.69;;;18.71;100.00
49843;BME280;55559;48.898;9.184;2022-08-18T05:24:38;98025.72;;;18.82;100.00
49843;BME280;55559;48.898;9.184;2022-08-18T05:27:06;98029.28;;;18.89;100.00
49843;BME280;55559;48.898;9.184;2022-08-18T05:29:34;98012.13;;;19.04;100.00
49843;BME280;55559;48.898;9.184;2022-08-18T05:32:04;98003.63;;;19.07;100.00
49843;BME280;55559;48.898;9.184;2022-08-18T05:34:33;98002.88;;;19.26;100.00
49843;BME280;55559;48.898;9.184;2022-08-18T05:37:10;98001.44;;;19.37;100.00
49843;BME280;55559;48.898;9.184;2022-08-18T05:39:51;97993.38;;;19.50;100.00
49843;BME280;55559;48.898;9.184;2022-08-18T05:42:22;98009.75;;;19.49;100.00
49843;BME280;55559;48.898;9.184;2022-08-18T05:44:52;97990.88;;;19.49;100.00
49843;BME280;55559;48.898;9.184;2022-08-18T05:47:25;98001.88;;;19.61;100.00
49843;BME280;55559;48.898;9.184;2022-08-18T05:49:55;98008.56;;;19.72;100.00
49843;BME280;55559;48.898;9.184;2022-08-18T05:52:29;98007.94;;;19.96;100.00
49843;BME280;55559;48.898;9.184;2022-08-18T05:55:00;97996.31;;;20.29;100.00
49843;BME280;55559;48.898;9.184;2022-08-18T05:57:48;98002.91;;;20.40;100.00
49843;BME280;55559;48.898;9.184;2022-08-18T06:00:17;97995.19;;;20.50;100.00
49843;BME280;55559;48.898;9.184;2022-08-18T06:02:54;97996.88;;;20.44;100.00
49843;BME280;55559;48.898;9.184;2022-08-18T06:05:27;97998.53;;;20.45;100.00
49843;BME280;55559;48.898;9.184;2022-08-18T06:07:59;97991.22;;;21.18;100.00
49843;BME280;55559;48.898;9.184;2022-08-18T06:10:28;97990.59;;;20.71;100.00
49843;BME280;55559;48.898;9.184;2022-08-18T06:12:59;97997.47;;;20.73;100.00
49843;BME280;55559;48.898;9.184;2022-08-18T06:15:32;97999.38;;;20.53;100.00
49843;BME280;55559;48.898;9.184;2022-08-18T06:18:26;98010.00;;;20.41;100.00
49843;BME280;55559;48.898;9.184;2022-08-18T06:21:07;98018.31;;;20.19;100.00
49843;BME280;55559;48.898;9.184;2022-08-18T06:23:41;98016.81;;;20.50;100.00
49843;BME280;55559;48.898;9.184;2022-08-18T06:26:17;98016.75;;;20.84;100.00
49843;BME280;55559;48.898;9.184;2022-08-18T06:29:05;98026.53;;;20.85;100.00
49843;BME280;55559;48.898;9.184;2022-08-18T06:31:42;98044.41;;;20.79;100.00
49843;BME280;55559;48.898;9.184;2022-08-18T06:34:19;98040.25;;;20.83;100.00
49843;BME280;55559;48.898;9.184;2022-08-18T06:36:54;98034.97;;;21.02;100.00
49843;BME280;55559;48.898;9.184;2022-08-18T06:39:28;98038.13;;;20.92;100.00
49843;BME280;55559;48.898;9.184;2022-08-18T06:41:58;98040.84;;;20.85;100.00
49843;BME280;55559;48.898;9.184;2022-08-18T06:44:35;98035.00;;;20.95;100.00
49843;BME280;55559;48.898;9.184;2022-08-18T06:47:09;98025.31;;;21.19;100.00
49843;BME280;55559;48.898;9.184;2022-08-18T06:49:44;98022.59;;;21.26;100.00
49843;BME280;55559;48.898;9.184;2022-08-18T06:52:23;98021.84;;;21.12;100.00
49843;BME280;55559;48.898;9.184;2022-08-18T06:55:05;98015.41;;;21.06;100.00
49843;BME280;55559;48.898;9.184;2022-08-18T06:57:36;98008.53;;;21.10;100.00
49843;BME280;55559;48.898;9.184;2022-08-18T07:00:29;98024.88;;;21.29;100.00
49843;BME280;55559;48.898;9.184;2022-08-18T07:03:01;98021.03;;;21.43;100.00
49843;BME280;55559;48.898;9.184;2022-08-18T07:05:35;98030.59;;;21.46;100.00
49843;BME280;55559;48.898;9.184;2022-08-18T07:08:16;98027.06;;;21.52;100.00
49843;BME280;55559;48.898;9.184;2022-08-18T07:10:46;98020.25;;;21.36;100.00
49843;BME280;55559;48.898;9.184;2022-08-18T07:13:20;98018.31;;;21.43;100.00
49843;BME280;55559;48.898;9.184;2022-08-18T07:15:49;98025.00;;;21.47;100.00
49843;BME280;55559;48.898;9.184;2022-08-18T07:18:25;98037.63;;;21.53;100.00
49843;BME280;55559;48.898;9.184;2022-08-18T07:20:58;98034.09;;;21.53;100.00
49843;BME280;55559;48.898;9.184;2022-08-18T07:23:29;98041.84;;;21.81;100.00
49843;BME280;55559;48.898;9.184;2022-08-18T07:26:07;98046.63;;;21.47;100.00
49843;BME280;55559;48.898;9.184;2022-08-18T07:28:38;98051.41;;;21.52;100.00
49843;BME280;55559;48.898;9.184;2022-08-18T07:31:19;98066.28;;;21.23;100.00
49843;BME280;55559;48.898;9.184;2022-08-18T07:33:53;98071.16;;;21.00;100.00
49843;BME280;55559;48.898;9.184;2022-08-18T07:36:27;98061.38;;;20.99;100.00
49843;BME280;55559;48.898;9.184;2022-08-18T07:39:02;98065.00;;;20.80;100.00
49843;BME280;55559;48.898;9.184;2022-08-18T07:41:37;98068.94;;;20.57;100.00
49843;BME280;55559;48.898;9.184;2022-08-18T07:44:14;98061.22;;;20.88;100.00
49843;BME280;55559;48.898;9.184;2022-08-18T07:46:52;98058.78;;;20.73;100.00
49843;BME280;55559;48.898;9.184;2022-08-18T07:49:27;98065.00;;;20.80;100.00
49843;BME280;55559;48.898;9.184;2022-08-18T07:52:02;98076.22;;;20.70;100.00
49843;BME280;55559;48.898;9.184;2022-08-18T07:54:45;98085.81;;;20.26;100.00
49843;BME280;55559;48.898;9.184;2022-08-18T07:57:15;98088.31;;;20.34;100.00
49843;BME280;55559;48.898;9.184;2022-08-18T07:59:49;98085.41;;;20.29;100.00
49843;BME280;55559;48.898;9.184;2022-08-18T08:02:27;98082.28;;;20.19;100.00
49843;BME280;55559;48.898;9.184;2022-08-18T08:05:04;98088.31;;;20.28;100.00
49843;BME280;55559;48.898;9.184;2022-08-18T08:07:40;98087.91;;;20.11;100.00
49843;BME280;55559;48.898;9.184;2022-08-18T08:10:21;98081.22;;;20.33;100.00
49843;BME280;55559;48.898;9.184;2022-08-18T08:12:56;98071.44;;;20.45;100.00
49843;BME280;55559;48.898;9.184;2022-08-18T08:15:39;98074.16;;;20.45;100.00
49843;BME280;55559;48.898;9.184;2022-08-18T08:18:12;98076.03;;;20.45;100.00
49843;BME280;55559;48.898;9.184;2022-08-18T08:20:47;98087.25;;;20.15;100.00
49843;BME280;55559;48.898;9.184;2022-08-18T08:23:24;98083.72;;;20.15;100.00
49843;BME280;55559;48.898;9.184;2022-08-18T08:26:07;98089.13;;;20.35;100.00
49843;BME280;55559;48.898;9.184;2022-08-18T08:28:43;98085.38;;;20.49;100.00
49843;BME280;55559;48.898;9.184;2022-08-18T08:31:21;98092.63;;;20.62;100.00
49843;BME280;55559;48.898;9.184;2022-08-18T08:33:56;98083.91;;;20.60;100.00
49843;BME280;55559;48.898;9.184;2022-08-18T08:36:29;98076.03;;;20.32;100.00
49843;BME280;55559;48.898;9.184;2022-08-18T08:39:02;98038.63;;;20.42;100.00
49843;BME280;55559;48.898;9.184;2022-08-18T08:41:34;98026.38;;;20.46;100.00
49843;BME280;55559;48.898;9.184;2022-08-18T08:44:08;98030.09;;;20.58;100.00
49843;BME280;55559;48.898;9.184;2022-08-18T08:46:43;98050.47;;;20.61;100.00
49843;BME280;55559;48.898;9.184;2022-08-18T08:49:23;98048.19;;;20.71;100.00
49843;BME280;55559;48.898;9.184;2022-08-18T08:51:55;98046.66;;;20.89;100.00
49843;BME280;55559;48.898;9.184;2022-08-18T08:54:30;98055.06;;;21.19;100.00
49843;BME280;55559;48.898;9.184;2022-08-18T08:59:30;98045.53;;;21.55;100.00
49843;BME280;55559;48.898;9.184;2022-08-18T09:02:14;98033.22;;;21.66;100.00
49843;BME280;55559;48.898;9.184;2022-08-18T09:04:52;98040.34;;;21.85;100.00
49843;BME280;55559;48.898;9.184;2022-08-18T09:07:34;98058.16;;;22.00;100.00
49843;BME280;55559;48.898;9.184;2022-08-18T09:10:29;98070.63;;;22.01;100.00
49843;BME280;55559;48.898;9.184;2022-08-18T09:13:17;98054.03;;;21.59;100.00
49843;BME280;55559;48.898;9.184;2022-08-18T09:16:05;98021.00;;;22.07;100.00
49843;BME280;55559;48.898;9.184;2022-08-18T09:18:48;98013.16;;;22.49;100.00
49843;BME280;55559;48.898;9.184;2022-08-18T09:21:34;98012.53;;;22.28;100.00
49843;BME280;55559;48.898;9.184;2022-08-18T09:24:21;97999.50;;;22.12;100.00
49843;BME280;55559;48.898;9.184;2022-08-18T09:26:53;97991.44;;;22.31;100.00
49843;BME280;55559;48.898;9.184;2022-08-18T09:29:49;97987.13;;;22.23;100.00
49843;BME280;55559;48.898;9.184;2022-08-18T09:32:48;98007.81;;;21.92;100.00
49843;BME280;55559;48.898;9.184;2022-08-18T09:35:45;98019.38;;;22.06;100.00
49843;BME280;55559;48.898;9.184;2022-08-18T09:38:20;98031.63;;;22.34;100.00
49843;BME280;55559;48.898;9.184;2022-08-18T09:41:08;98038.84;;;22.65;100.00
49843;BME280;55559;48.898;9.184;2022-08-18T09:43:59;98047.66;;;23.16;100.00
49843;BME280;55559;48.898;9.184;2022-08-18T09:46:57;98045.56;;;23.48;97.74
49843;BME280;55559;48.898;9.184;2022-08-18T09:49:48;98045.19;;;23.45;97.74
49843;BME280;55559;48.898;9.184;2022-08-18T09:55:42;98034.53;;;23.73;93.74
49843;BME280;55559;48.898;9.184;2022-08-18T10:04:28;98038.13;;;23.86;94.18
49843;BME280;55559;48.898;9.184;2022-08-18T10:07:18;98046.56;;;24.08;91.17
49843;BME280;55559;48.898;9.184;2022-08-18T10:09:56;98034.75;;;24.02;92.40
49843;BME280;55559;48.898;9.184;2022-08-18T10:12:35;98036.91;;;24.36;88.10
49843;BME280;55559;48.898;9.184;2022-08-18T10:15:20;98041.47;;;24.82;85.81
49843;BME280;55559;48.898;9.184;2022-08-18T10:18:04;98024.94;;;24.84;83.61
49843;BME280;55559;48.898;9.184;2022-08-18T10:20:44;98028.63;;;25.18;83.63
49843;BME280;55559;48.898;9.184;2022-08-18T10:23:41;98010.66;;;24.53;84.84
49843;BME280;55559;48.898;9.184;2022-08-18T10:29:50;98009.72;;;24.00;90.35
49843;BME280;55559;48.898;9.184;2022-08-18T10:32:42;98012.91;;;23.97;88.99
49843;BME280;55559;48.898;9.184;2022-08-18T10:38:41;97980.06;;;24.34;82.16
49843;BME280;55559;48.898;9.184;2022-08-18T10:41:19;97975.84;;;24.91;77.66
49843;BME280;55559;48.898;9.184;2022-08-18T10:43:50;97957.69;;;24.79;81.46
49843;BME280;55559;48.898;9.184;2022-08-18T10:46:21;97943.34;;;25.13;79.72
49843;BME280;55559;48.898;9.184;2022-08-18T10:48:59;97943.66;;;24.59;84.34
49843;BME280;55559;48.898;9.184;2022-08-18T10:51:40;97949.47;;;24.62;83.99
49843;BME280;55559;48.898;9.184;2022-08-18T10:54:20;97951.91;;;24.64;83.83
49843;BME280;55559;48.898;9.184;2022-08-18T10:56:53;97958.47;;;24.27;84.87
49843;BME280;55559;48.898;9.184;2022-08-18T10:59:25;97961.06;;;24.22;83.09
49843;BME280;55559;48.898;9.184;2022-08-18T11:02:04;97956.66;;;24.97;81.10
49843;BME280;55559;48.898;9.184;2022-08-18T11:04:40;97942.81;;;24.70;80.31
49843;BME280;55559;48.898;9.184;2022-08-18T11:07:11;97948.66;;;24.26;83.04
49843;BME280;55559;48.898;9.184;2022-08-18T11:09:42;97941.66;;;24.66;82.01
49843;BME280;55559;48.898;9.184;2022-08-18T11:12:12;97938.34;;;25.50;75.62
49843;BME280;55559;48.898;9.184;2022-08-18T11:15:05;97936.53;;;25.39;75.97
49843;BME280;55559;48.898;9.184;2022-08-18T11:17:46;97945.34;;;25.17;77.99
49843;BME280;55559;48.898;9.184;2022-08-18T11:20:20;97955.75;;;24.92;76.32
49843;BME280;55559;48.898;9.184;2022-08-18T11:22:52;97964.81;;;24.45;78.36
49843;BME280;55559;48.898;9.184;2022-08-18T11:25:29;97959.25;;;25.33;73.73
49843;BME280;55559;48.898;9.184;2022-08-18T11:27:57;97947.22;;;25.29;73.15
49843;BME280;55559;48.898;9.184;2022-08-18T11:30:28;97952.66;;;25.29;74.46
49843;BME280;55559;48.898;9.184;2022-08-18T11:32:56;97960.84;;;25.29;72.68
49843;BME280;55559;48.898;9.184;2022-08-18T11:35:30;97961.53;;;24.55;77.86
49843;BME280;55559;48.898;9.184;2022-08-18T11:38:02;97957.91;;;25.18;75.36
49843;BME280;55559;48.898;9.184;2022-08-18T11:40:37;97962.44;;;25.01;79.72
49843;BME280;55559;48.898;9.184;2022-08-18T11:43:11;97970.84;;;25.40;75.14
49843;BME280;55559;48.898;9.184;2022-08-18T11:45:56;97967.69;;;24.91;77.71
49843;BME280;55559;48.898;9.184;2022-08-18T11:48:35;97949.81;;;25.86;72.12
49843;BME280;55559;48.898;9.184;2022-08-18T11:51:10;97944.44;;;26.25;67.14
49843;BME280;55559;48.898;9.184;2022-08-18T11:53:52;97940.66;;;25.92;71.73
49843;BME280;55559;48.898;9.184;2022-08-18T11:56:24;97932.91;;;25.50;74.60
49843;BME280;55559;48.898;9.184;2022-08-18T11:58:54;97924.97;;;26.16;71.45
49843;BME280;55559;48.898;9.184;2022-08-18T12:01:32;97926.75;;;24.97;72.90
49843;BME280;55559;48.898;9.184;2022-08-18T12:04:08;97927.53;;;25.10;73.45
49843;BME280;55559;48.898;9.184;2022-08-18T12:06:37;97914.75;;;25.39;69.71
49843;BME280;55559;48.898;9.184;2022-08-18T12:09:13;97918.53;;;25.55;68.55
49843;BME280;55559;48.898;9.184;2022-08-18T12:11:51;97908.75;;;25.08;69.32
49843;BME280;55559;48.898;9.184;2022-08-18T12:14:21;97899.22;;;25.73;68.20
49843;BME280;55559;48.898;9.184;2022-08-18T12:16:50;97900.41;;;26.55;63.98
49843;BME280;55559;48.898;9.184;2022-08-18T12:19:18;97888.66;;;26.99;60.17
49843;BME280;55559;48.898;9.184;2022-08-18T12:21:50;97892.22;;;26.33;64.05
49843;BME280;55559;48.898;9.184;2022-08-18T12:24:20;97896.34;;;25.97;66.40
49843;BME280;55559;48.898;9.184;2022-08-18T12:26:50;97906.31;;;26.08;65.17
49843;BME280;55559;48.898;9.184;2022-08-18T12:29:18;97891.78;;;26.20;64.45
49843;BME280;55559;48.898;9.184;2022-08-18T12:31:48;97898.66;;;26.27;65.04
49843;BME280;55559;48.898;9.184;2022-08-18T12:34:17;97903.38;;;26.32;64.14
49843;BME280;55559;48.898;9.184;2022-08-18T12:36:49;97896.06;;;26.15;65.23
49843;BME280;55559;48.898;9.184;2022-08-18T12:39:17;97882.44;;;27.04;62.03
49843;BME280;55559;48.898;9.184;2022-08-18T12:41:44;97875.25;;;26.70;62.90
49843;BME280;55559;48.898;9.184;2022-08-18T12:44:13;97879.00;;;26.91;63.75
49843;BME280;55559;48.898;9.184;2022-08-18T12:46:41;97881.03;;;27.01;63.39
49843;BME280;55559;48.898;9.184;2022-08-18T12:49:13;97877.59;;;26.40;64.99
49843;BME280;55559;48.898;9.184;2022-08-18T12:51:41;97871.97;;;26.96;62.15
49843;BME280;55559;48.898;9.184;2022-08-18T12:54:08;97871.09;;;27.17;61.83
49843;BME280;55559;48.898;9.184;2022-08-18T12:56:36;97865.84;;;26.17;66.13
49843;BME280;55559;48.898;9.184;2022-08-18T12:59:06;97860.38;;;26.17;64.28
49843;BME280;55559;48.898;9.184;2022-08-18T13:01:37;97848.84;;;26.54;63.68
49843;BME280;55559;48.898;9.184;2022-08-18T13:04:05;97841.56;;;26.60;63.33
49843;BME280;55559;48.898;9.184;2022-08-18T13:06:35;97833.13;;;26.39;62.86
49843;BME280;55559;48.898;9.184;2022-08-18T13:09:04;97831.47;;;26.82;61.23
49843;BME280;55559;48.898;9.184;2022-08-18T13:11:32;97831.06;;;27.28;59.55
49843;BME280;55559;48.898;9.184;2022-08-18T13:13:59;97824.91;;;27.10;61.00
49843;BME280;55559;48.898;9.184;2022-08-18T13:16:28;97813.59;;;26.69;60.66
49843;BME280;55559;48.898;9.184;2022-08-18T13:18:59;97797.56;;;26.29;63.67
49843;BME280;55559;48.898;9.184;2022-08-18T13:21:27;97805.25;;;27.08;60.15
49843;BME280;55559;48.898;9.184;2022-08-18T13:23:54;97798.69;;;26.77;62.02
49843;BME280;55559;48.898;9.184;2022-08-18T13:26:26;97787.66;;;26.67;61.90
49843;BME280;55559;48.898;9.184;2022-08-18T13:28:54;97790.66;;;26.65;62.20
49843;BME280;55559;48.898;9.184;2022-08-18T13:31:23;97790.44;;;27.32;59.96
49843;BME280;55559;48.898;9.184;2022-08-18T13:33:50;97791.22;;;27.00;60.25
49843;BME280;55559;48.898;9.184;2022-08-18T13:36:19;97795.97;;;27.09;59.81
49843;BME280;55559;48.898;9.184;2022-08-18T13:38:47;97799.72;;;27.73;57.84
49843;BME280;55559;48.898;9.184;2022-08-18T13:41:17;97801.75;;;27.51;56.54